Fleurtje — HP9555 — position and weather

sailwx.info

Track history (hours):
 
Tides and Currents Weather Stations Pressure Air Temp Water Temp Dewpoint Dewpoint Depression Visibility Wind Speed Wind Dir Waves Ship Positions

Fleurtje

Last reported at 2018-May-21 14:43 UTC. Time now 2018-Jun-25 08:15 UTC.
Position N 39°47' E 014°00'.
Warning: this ship's position is 34 days out of date.

Length 57 m; draft 5.2 m.

Type: Sailing vessel. MMSI: 373602000.

Date/timePositionNaut miles runAvg speedWind from/ knotsBaromVisibWave heightAir tempDewpointWater temp
2018-May-21 14:43N 39°47' E 014°00'2 8.4
2018-May-21 14:30N 39°48' E 013°59'4 8.3
2018-May-21 14:01N 39°51' E 013°55'4 8.2
2018-May-21 13:30N 39°54' E 013°51'11 4.7
2018-May-21 11:08N 40°02' E 013°41'0 2.1
2018-May-21 11:00N 40°02' E 013°41'2 3.3
2018-May-21 10:31N 40°03' E 013°40'1 2.3
2018-May-21 10:01N 40°04' E 013°39'1 2.5
2018-May-21 09:26N 40°05' E 013°38'4 1.0
2018-May-21 05:32N 40°08' E 013°34'0 7.8
2018-May-21 05:30N 40°09' E 013°34'4 7.7
2018-May-21 05:00N 40°11' E 013°31'4 7.6
2018-May-21 04:30N 40°14' E 013°27'22 7.7
2018-May-21 01:36N 40°31' E 013°08'1 7.7
2018-May-21 01:30N 40°31' E 013°07'43 8.1
2018-May-20 20:14N 41°04' E 012°30'5 8.6
2018-May-20 19:39N 41°07' E 012°26'1 9.2
2018-May-20 19:30N 41°08' E 012°25'5 9.2
2018-May-20 19:00N 41°12' E 012°21'5 9.2
2018-May-20 18:30N 41°15' E 012°17'19 9.2
2018-May-20 16:26N 41°29' E 012°00'4 9.2
2018-May-20 16:01N 41°32' E 011°57'5 9.2
2018-May-20 15:28N 41°36' E 011°52'4 9.1
2018-May-20 15:00N 41°40' E 011°49'5 9.1
2018-May-20 14:30N 41°43' E 011°45'73 5.6
2018-May-20 01:27N 42°39' E 010°42'4 8.9
2018-May-20 01:01N 42°42' E 010°39'5 8.9
2018-May-20 00:28N 42°46' E 010°35'4 8.8
2018-May-20 00:00N 42°50' E 010°32'4 8.8
2018-May-19 23:30N 42°53' E 010°29'4 8.9
2018-May-19 23:01N 42°57' E 010°26'4 8.7
2018-May-19 22:30N 43°01' E 010°23'4 8.9
2018-May-19 22:00N 43°04' E 010°19'4 8.8
2018-May-19 21:30N 43°08' E 010°16'4 8.8
2018-May-19 21:01N 43°12' E 010°13'5 9.0
2018-May-19 20:31N 43°15' E 010°09'5 9.0
2018-May-19 20:01N 43°19' E 010°06'4 8.9
2018-May-19 19:31N 43°23' E 010°03'5 9.0
2018-May-19 19:01N 43°27' E 009°60'510.3
2018-May-19 18:30N 43°31' E 009°55'510.9
2018-May-19 18:01N 43°35' E 009°50'510.7
2018-May-19 17:31N 43°39' E 009°45'510.6
2018-May-19 17:01N 43°43' E 009°40'510.5
2018-May-19 16:31N 43°46' E 009°35'510.6
2018-May-19 16:01N 43°50' E 009°29'510.3
2018-May-19 15:31N 43°53' E 009°24'510.4
2018-May-19 15:00N 43°57' E 009°19'510.0
2018-May-19 14:30N 44°01' E 009°14'2 4.6
2018-May-19 14:01N 44°02' E 009°11'1 1.5
2018-May-19 13:30N 44°02' E 009°12'1 2.7
2018-May-19 13:00N 44°03' E 009°14'1 2.8
2018-May-19 12:31N 44°04' E 009°15'1 2.6
2018-May-19 12:00N 44°05' E 009°16'1 1.9
2018-May-19 11:30N 44°06' E 009°16'1 2.3
2018-May-19 11:00N 44°07' E 009°14'2 3.1
2018-May-19 10:31N 44°07' E 009°13'4 8.0
2018-May-19 10:00N 44°10' E 009°09'4 8.6
2018-May-19 09:31N 44°14' E 009°05'4 8.6
2018-May-19 09:00N 44°17' E 009°01'4 8.4
2018-May-19 08:30N 44°20' E 008°58'3 6.9
2018-May-19 08:00N 44°24' E 008°56'1 2.3
2018-May-19 07:31N 44°25' E 008°55'0 0.0
2018-May-19 06:58N 44°25' E 008°55'0 0.0
2018-May-19 06:28N 44°25' E 008°55'0 0.0
2018-May-19 05:43N 44°25' E 008°55'0 0.0
2018-May-19 05:28N 44°25' E 008°55'0 0.0
2018-May-19 04:58N 44°25' E 008°55'0 0.0
2018-May-19 04:28N 44°25' E 008°55'0 0.0
2018-May-19 03:55N 44°25' E 008°55'0 0.0
2018-May-19 03:28N 44°25' E 008°55'0 0.0
2018-May-19 02:58N 44°25' E 008°55'0 0.0
2018-May-19 02:28N 44°25' E 008°55'0 0.0
2018-May-19 01:58N 44°25' E 008°55'0 0.0
2018-May-19 01:28N 44°25' E 008°55'0 0.0
2018-May-19 00:58N 44°25' E 008°55'0 0.0
2018-May-19 00:28N 44°25' E 008°55'0 0.0
2018-May-18 23:49N 44°25' E 008°55'0 0.0
2018-May-18 23:28N 44°25' E 008°55'0 0.0
2018-May-18 22:52N 44°25' E 008°55'0 0.0
2018-May-18 22:22N 44°25' E 008°55'0 0.0
2018-May-18 21:52N 44°25' E 008°55'0 0.0
2018-May-18 21:22N 44°25' E 008°55'0 0.0
2018-May-18 20:58N 44°25' E 008°55'0 0.0
2018-May-18 20:28N 44°25' E 008°55'0 0.0
2018-May-18 19:55N 44°25' E 008°55'0 0.0
2018-May-18 19:28N 44°25' E 008°55'0 0.0
2018-May-18 18:55N 44°25' E 008°55'0 0.0
2018-May-18 18:25N 44°25' E 008°55'0 0.0
2018-May-18 17:55N 44°25' E 008°55'0 0.0
2018-May-18 17:25N 44°25' E 008°55'0 0.0
2018-May-18 16:58N 44°25' E 008°55'0 0.0
2018-May-18 16:28N 44°25' E 008°55'0 0.0
2018-May-18 15:58N 44°25' E 008°55'0 0.0
2018-May-18 15:28N 44°25' E 008°55'0 0.0
2018-May-18 14:58N 44°25' E 008°55'0 0.0
2018-May-18 14:28N 44°25' E 008°55'0 0.0
2018-May-18 13:58N 44°25' E 008°55'0 0.0
2018-May-18 13:28N 44°25' E 008°55'0 0.0
2018-May-18 12:46N 44°25' E 008°55'0 0.0
2018-May-18 12:28N 44°25' E 008°55'0 0.0
2018-May-18 11:52N 44°25' E 008°55'0 0.0
2018-May-18 11:28N 44°25' E 008°55'0 0.0
2018-May-18 10:58N 44°25' E 008°55'0 0.0
2018-May-18 10:28N 44°25' E 008°55'0 0.0
2018-May-18 09:58N 44°25' E 008°55'0 0.0
2018-May-18 09:22N 44°25' E 008°55'0 0.0
2018-May-18 08:52N 44°25' E 008°55'0 0.0
2018-May-18 08:22N 44°25' E 008°55'0 0.0
2018-May-18 07:58N 44°25' E 008°55'0 0.0
2018-May-18 07:28N 44°25' E 008°55'0 0.0
2018-May-18 06:58N 44°25' E 008°55'0 0.0
2018-May-18 06:28N 44°25' E 008°55'0 0.0
2018-May-18 05:58N 44°25' E 008°55'0 0.0
2018-May-18 05:28N 44°25' E 008°55'0 0.0
2018-May-18 04:58N 44°25' E 008°55'0 0.0
2018-May-18 04:28N 44°25' E 008°55'0 0.0
2018-May-18 03:58N 44°25' E 008°55'0 0.0
2018-May-18 03:28N 44°25' E 008°55'0 0.0
2018-May-18 02:55N 44°25' E 008°55'0 0.0
2018-May-18 02:28N 44°25' E 008°55'0 0.0
2018-May-18 01:58N 44°25' E 008°55'0 0.0
2018-May-18 01:25N 44°25' E 008°55'0 0.0
2018-May-18 00:58N 44°25' E 008°55'0 0.0
2018-May-18 00:28N 44°25' E 008°55'0 0.0
2018-May-17 23:58N 44°25' E 008°55'0 0.0
2018-May-17 23:28N 44°25' E 008°55'0 0.0
2018-May-17 22:58N 44°25' E 008°55'0 0.0
2018-May-17 22:28N 44°25' E 008°55'0 0.0
2018-May-17 21:58N 44°25' E 008°55'0 0.0
2018-May-17 21:28N 44°25' E 008°55'0 0.0
2018-May-17 20:58N 44°25' E 008°55'0 0.0
2018-May-17 20:28N 44°25' E 008°55'0 0.0
2018-May-17 19:49N 44°25' E 008°55'0 0.0
2018-May-17 19:28N 44°25' E 008°55'0 0.0
2018-May-17 18:58N 44°25' E 008°55'0 0.0
2018-May-17 18:28N 44°25' E 008°55'0 0.0
2018-May-17 18:00N 44°25' E 008°55'0 0.0
2018-May-17 17:28N 44°25' E 008°55'0 0.0
2018-May-17 16:58N 44°25' E 008°55'0 0.0
2018-May-17 16:22N 44°25' E 008°55'0 0.0
2018-May-17 16:00N 44°25' E 008°55'0 0.0
2018-May-17 15:31N 44°25' E 008°55'0 0.0
2018-May-17 15:01N 44°25' E 008°55'0 0.0
2018-May-17 14:25N 44°25' E 008°55'0 0.0
2018-May-17 13:55N 44°25' E 008°55'0 0.0
2018-May-17 13:22N 44°25' E 008°55'0 0.0
2018-May-17 12:58N 44°25' E 008°55'0 0.0
2018-May-17 12:28N 44°25' E 008°55'0 0.0
2018-May-17 11:58N 44°25' E 008°55'0 0.0
2018-May-17 11:28N 44°25' E 008°55'0 0.0
2018-May-17 10:55N 44°25' E 008°55'0 0.0
2018-May-17 10:27N 44°25' E 008°55'0 0.0
2018-May-17 09:42N 44°25' E 008°55'0 0.0
2018-May-17 09:28N 44°25' E 008°55'0 0.0
2018-May-17 08:58N 44°25' E 008°55'0 0.0
2018-May-17 08:28N 44°25' E 008°55'0 0.0
2018-May-17 07:58N 44°25' E 008°55'0 0.0
2018-May-17 07:31N 44°25' E 008°55'0 0.0
2018-May-17 06:58N 44°25' E 008°55'0 0.0
2018-May-17 06:31N 44°25' E 008°55'0 0.0
2018-May-17 06:00N 44°25' E 008°55'0 0.0
2018-May-17 05:30N 44°25' E 008°55'0 0.0
2018-May-17 05:01N 44°25' E 008°55'0 0.0
2018-May-17 04:31N 44°25' E 008°55'0 0.0
2018-May-17 04:00N 44°25' E 008°55'0 0.0
2018-May-17 03:31N 44°25' E 008°55'0 0.0
2018-May-17 03:01N 44°25' E 008°55'0 0.0
2018-May-17 02:31N 44°25' E 008°55'0 0.0
2018-May-17 01:51N 44°25' E 008°55'0 0.0
2018-May-17 01:25N 44°25' E 008°55'0 0.0
2018-May-17 01:01N 44°25' E 008°55'0 0.0
2018-May-17 00:31N 44°25' E 008°55'0 0.0
2018-May-16 23:54N 44°25' E 008°55'0 0.0
2018-May-16 23:21N 44°25' E 008°55'0 0.0
2018-May-16 23:00N 44°25' E 008°55'0 0.0
2018-May-16 22:28N 44°25' E 008°55'0 0.0
2018-May-16 22:00N 44°25' E 008°55'0 0.0
2018-May-16 21:30N 44°25' E 008°55'0 0.0
2018-May-16 20:57N 44°25' E 008°55'0 0.0
2018-May-16 20:30N 44°25' E 008°55'0 0.0
2018-May-16 19:57N 44°25' E 008°55'0 0.0
2018-May-16 19:28N 44°25' E 008°55'0 0.0
2018-May-16 19:00N 44°25' E 008°55'0 0.0
2018-May-16 18:27N 44°25' E 008°55'0 0.0
2018-May-16 17:57N 44°25' E 008°55'0 0.0
2018-May-16 17:30N 44°25' E 008°55'0 0.0
2018-May-16 16:57N 44°25' E 008°55'0 0.0
2018-May-16 16:30N 44°25' E 008°55'0 0.0
2018-May-16 16:01N 44°25' E 008°55'0 0.0
2018-May-16 15:30N 44°25' E 008°55'0 0.0
2018-May-16 15:00N 44°25' E 008°55'0 0.0
2018-May-16 14:31N 44°25' E 008°55'0 0.0
2018-May-16 14:00N 44°25' E 008°55'0 0.0
2018-May-16 13:30N 44°25' E 008°55'0 0.0
2018-May-16 13:00N 44°25' E 008°55'0 0.0
2018-May-16 12:30N 44°25' E 008°55'0 0.0
2018-May-16 12:00N 44°25' E 008°55'0 0.0
2018-May-16 11:30N 44°25' E 008°55'0 0.0
2018-May-16 11:00N 44°25' E 008°55'0 0.0
2018-May-16 10:30N 44°25' E 008°55'0 0.0
2018-May-16 10:00N 44°25' E 008°55'0 0.0
2018-May-16 09:30N 44°25' E 008°55'0 0.0
2018-May-16 09:00N 44°25' E 008°55'0 0.0
2018-May-16 08:21N 44°25' E 008°55'0 0.0
2018-May-16 07:54N 44°25' E 008°55'0 0.0
2018-May-16 07:24N 44°25' E 008°55'0 0.0
2018-May-16 07:00N 44°25' E 008°55'0 0.0
2018-May-16 06:24N 44°25' E 008°55'0 0.0
2018-May-16 05:54N 44°25' E 008°55'0 0.0
2018-May-16 05:30N 44°25' E 008°55'0 0.0
2018-May-16 04:58N 44°25' E 008°55'0 0.0
2018-May-16 04:30N 44°25' E 008°55'0 0.0
2018-May-16 04:00N 44°25' E 008°55'0 0.0
2018-May-16 03:27N 44°25' E 008°55'0 0.0
2018-May-16 03:00N 44°25' E 008°55'0 0.0
2018-May-16 02:27N 44°25' E 008°55'0 0.0
2018-May-16 01:54N 44°25' E 008°55'0 0.0
2018-May-16 01:27N 44°25' E 008°55'0 0.0
2018-May-16 01:00N 44°25' E 008°55'0 0.0
2018-May-16 00:30N 44°25' E 008°55'0 0.0
2018-May-16 00:00N 44°25' E 008°55'0 0.0
2018-May-15 23:30N 44°25' E 008°55'0 0.0
2018-May-15 23:00N 44°25' E 008°55'0 0.0
2018-May-15 22:30N 44°25' E 008°55'0 0.0
2018-May-15 22:00N 44°25' E 008°55'0 0.0
2018-May-15 21:30N 44°25' E 008°55'0 0.0
2018-May-15 21:00N 44°25' E 008°55'0 0.0
2018-May-15 20:30N 44°25' E 008°55'0 0.0
2018-May-15 20:00N 44°25' E 008°55'0 0.0
2018-May-15 19:30N 44°25' E 008°55'0 0.0
2018-May-15 19:00N 44°25' E 008°55'0 0.0
2018-May-15 18:30N 44°25' E 008°55'0 0.0
2018-May-15 18:00N 44°25' E 008°55'0 0.0
2018-May-15 17:21N 44°25' E 008°55'0 0.0
2018-May-15 16:57N 44°25' E 008°55'0 0.0
2018-May-15 16:21N 44°25' E 008°55'0 0.0
2018-May-15 15:57N 44°25' E 008°55'0 0.0
2018-May-15 15:24N 44°25' E 008°55'0 0.0
2018-May-15 14:57N 44°25' E 008°55'0 0.0
2018-May-15 14:24N 44°25' E 008°55'0 0.0
2018-May-15 13:57N 44°25' E 008°55'0 0.0
2018-May-15 13:24N 44°25' E 008°55'0 0.0
2018-May-15 12:57N 44°25' E 008°55'0 0.0
2018-May-15 12:24N 44°25' E 008°55'0 0.0
2018-May-15 11:57N 44°25' E 008°55'0 0.0
2018-May-15 11:27N 44°25' E 008°55'0 0.0
2018-May-15 10:57N 44°25' E 008°55'0 0.0
2018-May-15 10:27N 44°25' E 008°55'0 0.0
2018-May-15 09:57N 44°25' E 008°55'0 0.0
2018-May-15 09:30N 44°25' E 008°55'0 0.0
2018-May-15 09:00N 44°25' E 008°55'0 0.0
2018-May-15 08:30N 44°25' E 008°55'0 0.0
2018-May-15 08:00N 44°25' E 008°55'0 0.0
2018-May-15 07:30N 44°25' E 008°55'0 0.0
2018-May-15 07:00N 44°25' E 008°55'0 0.0
2018-May-15 06:30N 44°25' E 008°55'0 0.0
2018-May-15 06:00N 44°25' E 008°55'0 0.0
2018-May-15 05:30N 44°25' E 008°55'0 0.0
2018-May-15 05:00N 44°25' E 008°55'0 0.0
2018-May-15 04:30N 44°25' E 008°55'0 0.0
2018-May-15 04:00N 44°25' E 008°55'0 0.0
2018-May-15 03:30N 44°25' E 008°55'0 0.0
2018-May-15 02:57N 44°25' E 008°55'0 0.0
2018-May-15 02:27N 44°25' E 008°55'0 0.0
2018-May-15 01:51N 44°25' E 008°55'0 0.0
2018-May-15 01:27N 44°25' E 008°55'0 0.0
2018-May-15 00:57N 44°25' E 008°55'0 0.0
2018-May-15 00:27N 44°25' E 008°55'0 0.0
2018-May-14 23:54N 44°25' E 008°55'0 0.0
2018-May-14 23:27N 44°25' E 008°55'0 0.0
2018-May-14 22:57N 44°25' E 008°55'0 0.0
2018-May-14 22:27N 44°25' E 008°55'0 0.0
2018-May-14 21:57N 44°25' E 008°55'0 0.0
2018-May-14 21:27N 44°25' E 008°55'0 0.0
2018-May-14 20:57N 44°25' E 008°55'0 0.0
2018-May-14 20:27N 44°25' E 008°55'0 0.0
2018-May-14 19:57N 44°25' E 008°55'0 0.0
2018-May-14 19:27N 44°25' E 008°55'0 0.0
2018-May-14 19:00N 44°25' E 008°55'0 0.0
2018-May-14 18:30N 44°25' E 008°55'0 0.0
2018-May-14 17:57N 44°25' E 008°55'0 0.0
2018-May-14 17:30N 44°25' E 008°55'0 0.0
2018-May-14 17:00N 44°25' E 008°55'0 0.0
2018-May-14 16:30N 44°25' E 008°55'0 0.0
2018-May-14 16:00N 44°25' E 008°55'0 0.0
2018-May-14 15:27N 44°25' E 008°55'0 0.0
2018-May-14 15:00N 44°25' E 008°55'0 0.0
2018-May-14 14:30N 44°25' E 008°55'0 0.0
2018-May-14 14:00N 44°25' E 008°55'0 0.0
2018-May-14 13:30N 44°25' E 008°55'0 0.0
2018-May-14 13:00N 44°25' E 008°55'0 0.0
2018-May-14 12:30N 44°25' E 008°55'0 0.0
2018-May-14 11:51N 44°25' E 008°55'0 0.0
2018-May-14 11:21N 44°25' E 008°55'0 0.0
2018-May-14 10:51N 44°25' E 008°55'0 0.0
2018-May-14 10:27N 44°25' E 008°55'0 0.0
2018-May-14 09:57N 44°25' E 008°55'0 0.0
2018-May-14 09:24N 44°25' E 008°55'0 0.0
2018-May-14 08:57N 44°25' E 008°55'0 0.0
2018-May-14 08:27N 44°25' E 008°55'0 0.0
2018-May-14 07:54N 44°25' E 008°55'0 0.0
2018-May-14 07:27N 44°25' E 008°55'0 0.0
2018-May-14 06:57N 44°25' E 008°55'0 0.0
2018-May-14 06:27N 44°25' E 008°55'0 0.0
2018-May-14 05:57N 44°25' E 008°55'0 0.0
2018-May-14 05:27N 44°25' E 008°55'0 0.0
2018-May-14 04:57N 44°25' E 008°55'0 0.0
2018-May-14 04:27N 44°25' E 008°55'0 0.0
2018-May-14 04:00N 44°25' E 008°55'0 0.0
2018-May-14 03:30N 44°25' E 008°55'0 0.0
2018-May-14 03:00N 44°25' E 008°55'0 0.0
2018-May-14 02:30N 44°25' E 008°55'0 0.0
2018-May-14 02:00N 44°25' E 008°55'0 0.0
2018-May-14 01:30N 44°25' E 008°55'0 0.0
2018-May-14 01:00N 44°25' E 008°55'0 0.0
2018-May-14 00:30N 44°25' E 008°55'0 0.0
2018-May-14 00:00N 44°25' E 008°55'0 0.0
2018-May-13 23:30N 44°25' E 008°55'0 0.0
2018-May-13 23:00N 44°25' E 008°55'0 0.0
2018-May-13 22:30N 44°25' E 008°55'0 0.0
2018-May-13 22:00N 44°25' E 008°55'0 0.0
2018-May-13 21:30N 44°25' E 008°55'0 0.0
2018-May-13 21:00N 44°25' E 008°55'0 0.0
2018-May-13 20:30N 44°25' E 008°55'0 0.0
2018-May-13 19:51N 44°25' E 008°55'0 0.0
2018-May-13 19:27N 44°25' E 008°55'0 0.0
2018-May-13 18:54N 44°25' E 008°55'0 0.0
2018-May-13 18:27N 44°25' E 008°55'0 0.0
2018-May-13 17:54N 44°25' E 008°55'0 0.0
2018-May-13 17:27N 44°25' E 008°55'0 0.0
2018-May-13 16:57N 44°25' E 008°55'0 0.0
2018-May-13 16:30N 44°25' E 008°55'0 0.0
2018-May-13 16:00N 44°25' E 008°55'0 0.0
2018-May-13 15:30N 44°25' E 008°55'0 0.0
2018-May-13 15:00N 44°25' E 008°55'0 0.0
2018-May-13 14:30N 44°25' E 008°55'0 0.0
2018-May-13 14:00N 44°25' E 008°55'0 0.0
2018-May-13 13:30N 44°25' E 008°55'0 0.0
2018-May-13 13:00N 44°25' E 008°55'0 0.0
2018-May-13 12:30N 44°25' E 008°55'0 0.0
2018-May-13 12:00N 44°25' E 008°55'0 0.0
2018-May-13 11:30N 44°25' E 008°55'0 0.0
2018-May-13 11:00N 44°25' E 008°55'0 0.0
2018-May-13 10:30N 44°25' E 008°55'0 0.0
2018-May-13 10:00N 44°25' E 008°55'0 0.0
2018-May-13 09:30N 44°25' E 008°55'0 0.0
2018-May-13 09:00N 44°25' E 008°55'0 0.0
2018-May-13 08:30N 44°25' E 008°55'0 0.0
2018-May-13 07:59N 44°25' E 008°55'0 0.0
2018-May-13 07:30N 44°25' E 008°55'0 0.0
2018-May-13 07:00N 44°25' E 008°55'0 0.0
2018-May-13 06:30N 44°25' E 008°55'0 0.0
2018-May-13 06:00N 44°25' E 008°55'0 0.0
2018-May-13 05:30N 44°25' E 008°55'0 0.0
2018-May-13 04:59N 44°25' E 008°55'0 0.0
2018-May-13 04:30N 44°25' E 008°55'0 0.0
2018-May-13 04:00N 44°25' E 008°55'0 0.0
2018-May-13 03:30N 44°25' E 008°55'0 0.0
2018-May-13 03:00N 44°25' E 008°55'0 0.0
2018-May-13 02:30N 44°25' E 008°55'0 0.0
2018-May-13 02:00N 44°25' E 008°55'0 0.0
2018-May-13 01:30N 44°25' E 008°55'0 0.0
2018-May-13 01:00N 44°25' E 008°55'0 0.0
2018-May-13 00:30N 44°25' E 008°55'0 0.0
2018-May-13 00:00N 44°25' E 008°55'0 0.0
2018-May-12 23:30N 44°25' E 008°55'0 0.0
2018-May-12 23:00N 44°25' E 008°55'0 0.0
2018-May-12 22:30N 44°25' E 008°55'0 0.0
2018-May-12 22:00N 44°25' E 008°55'0 0.0
2018-May-12 21:30N 44°25' E 008°55'0 0.0
2018-May-12 21:00N 44°25' E 008°55'0 0.0
2018-May-12 20:30N 44°25' E 008°55'0 0.0
2018-May-12 20:00N 44°25' E 008°55'0 0.0
2018-May-12 19:30N 44°25' E 008°55'0 0.0
2018-May-12 19:00N 44°25' E 008°55'0 0.0
2018-May-12 18:30N 44°25' E 008°55'0 0.0
2018-May-12 18:00N 44°25' E 008°55'0 0.0
2018-May-12 17:30N 44°25' E 008°55'0 0.0
2018-May-12 17:00N 44°25' E 008°55'0 0.0
2018-May-12 16:30N 44°25' E 008°55'0 0.0
2018-May-12 16:00N 44°25' E 008°55'0 0.0
2018-May-12 15:30N 44°25' E 008°55'0 0.0
2018-May-12 15:00N 44°25' E 008°55'0 0.0
2018-May-12 14:30N 44°25' E 008°55'0 0.0
2018-May-12 14:00N 44°25' E 008°55'0 0.0
2018-May-12 13:30N 44°25' E 008°55'0 0.0
2018-May-12 13:00N 44°25' E 008°55'0 0.0
2018-May-12 12:30N 44°25' E 008°55'0 0.0
2018-May-12 11:59N 44°25' E 008°55'0 0.0
2018-May-12 11:30N 44°25' E 008°55'0 0.0
2018-May-12 11:00N 44°25' E 008°55'0 0.0
2018-May-12 10:30N 44°25' E 008°55'0 0.0
2018-May-12 10:00N 44°25' E 008°55'0 0.0
2018-May-12 09:30N 44°25' E 008°55'0 0.0
2018-May-12 09:00N 44°25' E 008°55'0 0.0
2018-May-12 08:30N 44°25' E 008°55'0 0.2
2018-May-12 08:00N 44°25' E 008°55'2 3.4
2018-May-12 07:30N 44°23' E 008°57'4 7.4
2018-May-12 07:00N 44°20' E 008°59'3 5.6
2018-May-12 06:30N 44°18' E 008°57'4 7.7
2018-May-12 06:00N 44°16' E 008°52'4 8.0
2018-May-12 05:30N 44°13' E 008°48'4 8.6
2018-May-12 05:00N 44°11' E 008°43'4 8.6
2018-May-12 04:30N 44°09' E 008°38'4 8.5
2018-May-12 04:00N 44°06' E 008°33'4 8.2
2018-May-12 03:30N 44°03' E 008°29'5 8.0
2018-May-12 02:52N 43°60' E 008°24'22 8.3
2018-May-12 00:13N 43°46' E 007°60'26 8.0
2018-May-11 20:55N 43°38' E 007°25'5 7.7
2018-May-11 20:17N 43°37' E 007°18'2 8.0
2018-May-11 19:59N 43°36' E 007°15'4 7.6
2018-May-11 19:30N 43°36' E 007°10'2 1.6
2018-May-11 18:28N 43°35' E 007°08'0 0.0
2018-May-11 17:58N 43°35' E 007°08'0 0.0
2018-May-11 17:13N 43°35' E 007°08'0 0.0
2018-May-11 16:58N 43°35' E 007°08'0 0.0
2018-May-11 16:28N 43°35' E 007°08'  
Track history (hours):
 
Tides and Currents Weather Stations Pressure Air Temp Water Temp Dewpoint Dewpoint Depression Visibility Wind Speed Wind Dir Waves Ship Positions

Fleurtje

Last reported at 2018-May-21 14:43 UTC. Time now 2018-Jun-25 08:15 UTC.
Position N 39°47' E 014°00'.
Warning: this ship's position is 34 days out of date.

Length 57 m; draft 5.2 m.

Type: Sailing vessel. MMSI: 373602000.

Date/timePositionNaut miles runAvg speedWind from/ knotsBaromVisibWave heightAir tempDewpointWater temp
2018-May-21 14:43N 39°47' E 014°00'2 8.4
2018-May-21 14:30N 39°48' E 013°59'4 8.3
2018-May-21 14:01N 39°51' E 013°55'4 8.2
2018-May-21 13:30N 39°54' E 013°51'11 4.7
2018-May-21 11:08N 40°02' E 013°41'0 2.1
2018-May-21 11:00N 40°02' E 013°41'2 3.3
2018-May-21 10:31N 40°03' E 013°40'1 2.3
2018-May-21 10:01N 40°04' E 013°39'1 2.5
2018-May-21 09:26N 40°05' E 013°38'4 1.0
2018-May-21 05:32N 40°08' E 013°34'0 7.8
2018-May-21 05:30N 40°09' E 013°34'4 7.7
2018-May-21 05:00N 40°11' E 013°31'4 7.6
2018-May-21 04:30N 40°14' E 013°27'22 7.7
2018-May-21 01:36N 40°31' E 013°08'1 7.7
2018-May-21 01:30N 40°31' E 013°07'43 8.1
2018-May-20 20:14N 41°04' E 012°30'5 8.6
2018-May-20 19:39N 41°07' E 012°26'1 9.2
2018-May-20 19:30N 41°08' E 012°25'5 9.2
2018-May-20 19:00N 41°12' E 012°21'5 9.2
2018-May-20 18:30N 41°15' E 012°17'19 9.2
2018-May-20 16:26N 41°29' E 012°00'4 9.2
2018-May-20 16:01N 41°32' E 011°57'5 9.2
2018-May-20 15:28N 41°36' E 011°52'4 9.1
2018-May-20 15:00N 41°40' E 011°49'5 9.1
2018-May-20 14:30N 41°43' E 011°45'73 5.6
2018-May-20 01:27N 42°39' E 010°42'4 8.9
2018-May-20 01:01N 42°42' E 010°39'5 8.9
2018-May-20 00:28N 42°46' E 010°35'4 8.8
2018-May-20 00:00N 42°50' E 010°32'4 8.8
2018-May-19 23:30N 42°53' E 010°29'4 8.9
2018-May-19 23:01N 42°57' E 010°26'4 8.7
2018-May-19 22:30N 43°01' E 010°23'4 8.9
2018-May-19 22:00N 43°04' E 010°19'4 8.8
2018-May-19 21:30N 43°08' E 010°16'4 8.8
2018-May-19 21:01N 43°12' E 010°13'5 9.0
2018-May-19 20:31N 43°15' E 010°09'5 9.0
2018-May-19 20:01N 43°19' E 010°06'4 8.9
2018-May-19 19:31N 43°23' E 010°03'5 9.0
2018-May-19 19:01N 43°27' E 009°60'510.3
2018-May-19 18:30N 43°31' E 009°55'510.9
2018-May-19 18:01N 43°35' E 009°50'510.7
2018-May-19 17:31N 43°39' E 009°45'510.6
2018-May-19 17:01N 43°43' E 009°40'510.5
2018-May-19 16:31N 43°46' E 009°35'510.6
2018-May-19 16:01N 43°50' E 009°29'510.3
2018-May-19 15:31N 43°53' E 009°24'510.4
2018-May-19 15:00N 43°57' E 009°19'510.0
2018-May-19 14:30N 44°01' E 009°14'2 4.6
2018-May-19 14:01N 44°02' E 009°11'1 1.5
2018-May-19 13:30N 44°02' E 009°12'1 2.7
2018-May-19 13:00N 44°03' E 009°14'1 2.8
2018-May-19 12:31N 44°04' E 009°15'1 2.6
2018-May-19 12:00N 44°05' E 009°16'1 1.9
2018-May-19 11:30N 44°06' E 009°16'1 2.3
2018-May-19 11:00N 44°07' E 009°14'2 3.1
2018-May-19 10:31N 44°07' E 009°13'4 8.0
2018-May-19 10:00N 44°10' E 009°09'4 8.6
2018-May-19 09:31N 44°14' E 009°05'4 8.6
2018-May-19 09:00N 44°17' E 009°01'4 8.4
2018-May-19 08:30N 44°20' E 008°58'3 6.9
2018-May-19 08:00N 44°24' E 008°56'1 2.3
2018-May-19 07:31N 44°25' E 008°55'0 0.0
2018-May-19 06:58N 44°25' E 008°55'0 0.0
2018-May-19 06:28N 44°25' E 008°55'0 0.0
2018-May-19 05:43N 44°25' E 008°55'0 0.0
2018-May-19 05:28N 44°25' E 008°55'0 0.0
2018-May-19 04:58N 44°25' E 008°55'0 0.0
2018-May-19 04:28N 44°25' E 008°55'0 0.0
2018-May-19 03:55N 44°25' E 008°55'0 0.0
2018-May-19 03:28N 44°25' E 008°55'0 0.0
2018-May-19 02:58N 44°25' E 008°55'0 0.0
2018-May-19 02:28N 44°25' E 008°55'0 0.0
2018-May-19 01:58N 44°25' E 008°55'0 0.0
2018-May-19 01:28N 44°25' E 008°55'0 0.0
2018-May-19 00:58N 44°25' E 008°55'0 0.0
2018-May-19 00:28N 44°25' E 008°55'0 0.0
2018-May-18 23:49N 44°25' E 008°55'0 0.0
2018-May-18 23:28N 44°25' E 008°55'0 0.0
2018-May-18 22:52N 44°25' E 008°55'0 0.0
2018-May-18 22:22N 44°25' E 008°55'0 0.0
2018-May-18 21:52N 44°25' E 008°55'0 0.0
2018-May-18 21:22N 44°25' E 008°55'0 0.0
2018-May-18 20:58N 44°25' E 008°55'0 0.0
2018-May-18 20:28N 44°25' E 008°55'0 0.0
2018-May-18 19:55N 44°25' E 008°55'0 0.0
2018-May-18 19:28N 44°25' E 008°55'0 0.0
2018-May-18 18:55N 44°25' E 008°55'0 0.0
2018-May-18 18:25N 44°25' E 008°55'0 0.0
2018-May-18 17:55N 44°25' E 008°55'0 0.0
2018-May-18 17:25N 44°25' E 008°55'0 0.0
2018-May-18 16:58N 44°25' E 008°55'0 0.0
2018-May-18 16:28N 44°25' E 008°55'0 0.0
2018-May-18 15:58N 44°25' E 008°55'0 0.0
2018-May-18 15:28N 44°25' E 008°55'0 0.0
2018-May-18 14:58N 44°25' E 008°55'0 0.0
2018-May-18 14:28N 44°25' E 008°55'0 0.0
2018-May-18 13:58N 44°25' E 008°55'0 0.0
2018-May-18 13:28N 44°25' E 008°55'0 0.0
2018-May-18 12:46N 44°25' E 008°55'0 0.0
2018-May-18 12:28N 44°25' E 008°55'0 0.0
2018-May-18 11:52N 44°25' E 008°55'0 0.0
2018-May-18 11:28N 44°25' E 008°55'0 0.0
2018-May-18 10:58N 44°25' E 008°55'0 0.0
2018-May-18 10:28N 44°25' E 008°55'0 0.0
2018-May-18 09:58N 44°25' E 008°55'0 0.0
2018-May-18 09:22N 44°25' E 008°55'0 0.0
2018-May-18 08:52N 44°25' E 008°55'0 0.0
2018-May-18 08:22N 44°25' E 008°55'0 0.0
2018-May-18 07:58N 44°25' E 008°55'0 0.0
2018-May-18 07:28N 44°25' E 008°55'0 0.0
2018-May-18 06:58N 44°25' E 008°55'0 0.0
2018-May-18 06:28N 44°25' E 008°55'0 0.0
2018-May-18 05:58N 44°25' E 008°55'0 0.0
2018-May-18 05:28N 44°25' E 008°55'0 0.0
2018-May-18 04:58N 44°25' E 008°55'0 0.0
2018-May-18 04:28N 44°25' E 008°55'0 0.0
2018-May-18 03:58N 44°25' E 008°55'0 0.0
2018-May-18 03:28N 44°25' E 008°55'0 0.0
2018-May-18 02:55N 44°25' E 008°55'0 0.0
2018-May-18 02:28N 44°25' E 008°55'0 0.0
2018-May-18 01:58N 44°25' E 008°55'0 0.0
2018-May-18 01:25N 44°25' E 008°55'0 0.0
2018-May-18 00:58N 44°25' E 008°55'0 0.0
2018-May-18 00:28N 44°25' E 008°55'0 0.0
2018-May-17 23:58N 44°25' E 008°55'0 0.0
2018-May-17 23:28N 44°25' E 008°55'0 0.0
2018-May-17 22:58N 44°25' E 008°55'0 0.0
2018-May-17 22:28N 44°25' E 008°55'0 0.0
2018-May-17 21:58N 44°25' E 008°55'0 0.0
2018-May-17 21:28N 44°25' E 008°55'0 0.0
2018-May-17 20:58N 44°25' E 008°55'0 0.0
2018-May-17 20:28N 44°25' E 008°55'0 0.0
2018-May-17 19:49N 44°25' E 008°55'0 0.0
2018-May-17 19:28N 44°25' E 008°55'0 0.0
2018-May-17 18:58N 44°25' E 008°55'0 0.0
2018-May-17 18:28N 44°25' E 008°55'0 0.0
2018-May-17 18:00N 44°25' E 008°55'0 0.0
2018-May-17 17:28N 44°25' E 008°55'0 0.0
2018-May-17 16:58N 44°25' E 008°55'0 0.0
2018-May-17 16:22N 44°25' E 008°55'0 0.0
2018-May-17 16:00N 44°25' E 008°55'0 0.0
2018-May-17 15:31N 44°25' E 008°55'0 0.0
2018-May-17 15:01N 44°25' E 008°55'0 0.0
2018-May-17 14:25N 44°25' E 008°55'0 0.0
2018-May-17 13:55N 44°25' E 008°55'0 0.0
2018-May-17 13:22N 44°25' E 008°55'0 0.0
2018-May-17 12:58N 44°25' E 008°55'0 0.0
2018-May-17 12:28N 44°25' E 008°55'0 0.0
2018-May-17 11:58N 44°25' E 008°55'0 0.0
2018-May-17 11:28N 44°25' E 008°55'0 0.0
2018-May-17 10:55N 44°25' E 008°55'0 0.0
2018-May-17 10:27N 44°25' E 008°55'0 0.0
2018-May-17 09:42N 44°25' E 008°55'0 0.0
2018-May-17 09:28N 44°25' E 008°55'0 0.0
2018-May-17 08:58N 44°25' E 008°55'0 0.0
2018-May-17 08:28N 44°25' E 008°55'0 0.0
2018-May-17 07:58N 44°25' E 008°55'0 0.0
2018-May-17 07:31N 44°25' E 008°55'0 0.0
2018-May-17 06:58N 44°25' E 008°55'0 0.0
2018-May-17 06:31N 44°25' E 008°55'0 0.0
2018-May-17 06:00N 44°25' E 008°55'0 0.0
2018-May-17 05:30N 44°25' E 008°55'0 0.0
2018-May-17 05:01N 44°25' E 008°55'0 0.0
2018-May-17 04:31N 44°25' E 008°55'0 0.0
2018-May-17 04:00N 44°25' E 008°55'0 0.0
2018-May-17 03:31N 44°25' E 008°55'0 0.0
2018-May-17 03:01N 44°25' E 008°55'0 0.0
2018-May-17 02:31N 44°25' E 008°55'0 0.0
2018-May-17 01:51N 44°25' E 008°55'0 0.0
2018-May-17 01:25N 44°25' E 008°55'0 0.0
2018-May-17 01:01N 44°25' E 008°55'0 0.0
2018-May-17 00:31N 44°25' E 008°55'0 0.0
2018-May-16 23:54N 44°25' E 008°55'0 0.0
2018-May-16 23:21N 44°25' E 008°55'0 0.0
2018-May-16 23:00N 44°25' E 008°55'0 0.0
2018-May-16 22:28N 44°25' E 008°55'0 0.0
2018-May-16 22:00N 44°25' E 008°55'0 0.0
2018-May-16 21:30N 44°25' E 008°55'0 0.0
2018-May-16 20:57N 44°25' E 008°55'0 0.0
2018-May-16 20:30N 44°25' E 008°55'0 0.0
2018-May-16 19:57N 44°25' E 008°55'0 0.0
2018-May-16 19:28N 44°25' E 008°55'0 0.0
2018-May-16 19:00N 44°25' E 008°55'0 0.0
2018-May-16 18:27N 44°25' E 008°55'0 0.0
2018-May-16 17:57N 44°25' E 008°55'0 0.0
2018-May-16 17:30N 44°25' E 008°55'0 0.0
2018-May-16 16:57N 44°25' E 008°55'0 0.0
2018-May-16 16:30N 44°25' E 008°55'0 0.0
2018-May-16 16:01N 44°25' E 008°55'0 0.0
2018-May-16 15:30N 44°25' E 008°55'0 0.0
2018-May-16 15:00N 44°25' E 008°55'0 0.0
2018-May-16 14:31N 44°25' E 008°55'0 0.0
2018-May-16 14:00N 44°25' E 008°55'0 0.0
2018-May-16 13:30N 44°25' E 008°55'0 0.0
2018-May-16 13:00N 44°25' E 008°55'0 0.0
2018-May-16 12:30N 44°25' E 008°55'0 0.0
2018-May-16 12:00N 44°25' E 008°55'0 0.0
2018-May-16 11:30N 44°25' E 008°55'0 0.0
2018-May-16 11:00N 44°25' E 008°55'0 0.0
2018-May-16 10:30N 44°25' E 008°55'0 0.0
2018-May-16 10:00N 44°25' E 008°55'0 0.0
2018-May-16 09:30N 44°25' E 008°55'0 0.0
2018-May-16 09:00N 44°25' E 008°55'0 0.0
2018-May-16 08:21N 44°25' E 008°55'0 0.0
2018-May-16 07:54N 44°25' E 008°55'0 0.0
2018-May-16 07:24N 44°25' E 008°55'0 0.0
2018-May-16 07:00N 44°25' E 008°55'0 0.0
2018-May-16 06:24N 44°25' E 008°55'0 0.0
2018-May-16 05:54N 44°25' E 008°55'0 0.0
2018-May-16 05:30N 44°25' E 008°55'0 0.0
2018-May-16 04:58N 44°25' E 008°55'0 0.0
2018-May-16 04:30N 44°25' E 008°55'0 0.0
2018-May-16 04:00N 44°25' E 008°55'0 0.0
2018-May-16 03:27N 44°25' E 008°55'0 0.0
2018-May-16 03:00N 44°25' E 008°55'0 0.0
2018-May-16 02:27N 44°25' E 008°55'0 0.0
2018-May-16 01:54N 44°25' E 008°55'0 0.0
2018-May-16 01:27N 44°25' E 008°55'0 0.0
2018-May-16 01:00N 44°25' E 008°55'0 0.0
2018-May-16 00:30N 44°25' E 008°55'0 0.0
2018-May-16 00:00N 44°25' E 008°55'0 0.0
2018-May-15 23:30N 44°25' E 008°55'0 0.0
2018-May-15 23:00N 44°25' E 008°55'0 0.0
2018-May-15 22:30N 44°25' E 008°55'0 0.0
2018-May-15 22:00N 44°25' E 008°55'0 0.0
2018-May-15 21:30N 44°25' E 008°55'0 0.0
2018-May-15 21:00N 44°25' E 008°55'0 0.0
2018-May-15 20:30N 44°25' E 008°55'0 0.0
2018-May-15 20:00N 44°25' E 008°55'0 0.0
2018-May-15 19:30N 44°25' E 008°55'0 0.0
2018-May-15 19:00N 44°25' E 008°55'0 0.0
2018-May-15 18:30N 44°25' E 008°55'0 0.0
2018-May-15 18:00N 44°25' E 008°55'0 0.0
2018-May-15 17:21N 44°25' E 008°55'0 0.0
2018-May-15 16:57N 44°25' E 008°55'0 0.0
2018-May-15 16:21N 44°25' E 008°55'0 0.0
2018-May-15 15:57N 44°25' E 008°55'0 0.0
2018-May-15 15:24N 44°25' E 008°55'0 0.0
2018-May-15 14:57N 44°25' E 008°55'0 0.0
2018-May-15 14:24N 44°25' E 008°55'0 0.0
2018-May-15 13:57N 44°25' E 008°55'0 0.0
2018-May-15 13:24N 44°25' E 008°55'0 0.0
2018-May-15 12:57N 44°25' E 008°55'0 0.0
2018-May-15 12:24N 44°25' E 008°55'0 0.0
2018-May-15 11:57N 44°25' E 008°55'0 0.0
2018-May-15 11:27N 44°25' E 008°55'0 0.0
2018-May-15 10:57N 44°25' E 008°55'0 0.0
2018-May-15 10:27N 44°25' E 008°55'0 0.0
2018-May-15 09:57N 44°25' E 008°55'0 0.0
2018-May-15 09:30N 44°25' E 008°55'0 0.0
2018-May-15 09:00N 44°25' E 008°55'0 0.0
2018-May-15 08:30N 44°25' E 008°55'0 0.0
2018-May-15 08:00N 44°25' E 008°55'0 0.0
2018-May-15 07:30N 44°25' E 008°55'0 0.0
2018-May-15 07:00N 44°25' E 008°55'0 0.0
2018-May-15 06:30N 44°25' E 008°55'0 0.0
2018-May-15 06:00N 44°25' E 008°55'0 0.0
2018-May-15 05:30N 44°25' E 008°55'0 0.0
2018-May-15 05:00N 44°25' E 008°55'0 0.0
2018-May-15 04:30N 44°25' E 008°55'0 0.0
2018-May-15 04:00N 44°25' E 008°55'0 0.0
2018-May-15 03:30N 44°25' E 008°55'0 0.0
2018-May-15 02:57N 44°25' E 008°55'0 0.0
2018-May-15 02:27N 44°25' E 008°55'0 0.0
2018-May-15 01:51N 44°25' E 008°55'0 0.0
2018-May-15 01:27N 44°25' E 008°55'0 0.0
2018-May-15 00:57N 44°25' E 008°55'0 0.0
2018-May-15 00:27N 44°25' E 008°55'0 0.0
2018-May-14 23:54N 44°25' E 008°55'0 0.0
2018-May-14 23:27N 44°25' E 008°55'0 0.0
2018-May-14 22:57N 44°25' E 008°55'0 0.0
2018-May-14 22:27N 44°25' E 008°55'0 0.0
2018-May-14 21:57N 44°25' E 008°55'0 0.0
2018-May-14 21:27N 44°25' E 008°55'0 0.0
2018-May-14 20:57N 44°25' E 008°55'0 0.0
2018-May-14 20:27N 44°25' E 008°55'0 0.0
2018-May-14 19:57N 44°25' E 008°55'0 0.0
2018-May-14 19:27N 44°25' E 008°55'0 0.0
2018-May-14 19:00N 44°25' E 008°55'0 0.0
2018-May-14 18:30N 44°25' E 008°55'0 0.0
2018-May-14 17:57N 44°25' E 008°55'0 0.0
2018-May-14 17:30N 44°25' E 008°55'0 0.0
2018-May-14 17:00N 44°25' E 008°55'0 0.0
2018-May-14 16:30N 44°25' E 008°55'0 0.0
2018-May-14 16:00N 44°25' E 008°55'0 0.0
2018-May-14 15:27N 44°25' E 008°55'0 0.0
2018-May-14 15:00N 44°25' E 008°55'0 0.0
2018-May-14 14:30N 44°25' E 008°55'0 0.0
2018-May-14 14:00N 44°25' E 008°55'0 0.0
2018-May-14 13:30N 44°25' E 008°55'0 0.0
2018-May-14 13:00N 44°25' E 008°55'0 0.0
2018-May-14 12:30N 44°25' E 008°55'0 0.0
2018-May-14 11:51N 44°25' E 008°55'0 0.0
2018-May-14 11:21N 44°25' E 008°55'0 0.0
2018-May-14 10:51N 44°25' E 008°55'0 0.0
2018-May-14 10:27N 44°25' E 008°55'0 0.0
2018-May-14 09:57N 44°25' E 008°55'0 0.0
2018-May-14 09:24N 44°25' E 008°55'0 0.0
2018-May-14 08:57N 44°25' E 008°55'0 0.0
2018-May-14 08:27N 44°25' E 008°55'0 0.0
2018-May-14 07:54N 44°25' E 008°55'0 0.0
2018-May-14 07:27N 44°25' E 008°55'0 0.0
2018-May-14 06:57N 44°25' E 008°55'0 0.0
2018-May-14 06:27N 44°25' E 008°55'0 0.0
2018-May-14 05:57N 44°25' E 008°55'0 0.0
2018-May-14 05:27N 44°25' E 008°55'0 0.0
2018-May-14 04:57N 44°25' E 008°55'0 0.0
2018-May-14 04:27N 44°25' E 008°55'0 0.0
2018-May-14 04:00N 44°25' E 008°55'0 0.0
2018-May-14 03:30N 44°25' E 008°55'0 0.0
2018-May-14 03:00N 44°25' E 008°55'0 0.0
2018-May-14 02:30N 44°25' E 008°55'0 0.0
2018-May-14 02:00N 44°25' E 008°55'0 0.0
2018-May-14 01:30N 44°25' E 008°55'0 0.0
2018-May-14 01:00N 44°25' E 008°55'0 0.0
2018-May-14 00:30N 44°25' E 008°55'0 0.0
2018-May-14 00:00N 44°25' E 008°55'0 0.0
2018-May-13 23:30N 44°25' E 008°55'0 0.0
2018-May-13 23:00N 44°25' E 008°55'0 0.0
2018-May-13 22:30N 44°25' E 008°55'0 0.0
2018-May-13 22:00N 44°25' E 008°55'0 0.0
2018-May-13 21:30N 44°25' E 008°55'0 0.0
2018-May-13 21:00N 44°25' E 008°55'0 0.0
2018-May-13 20:30N 44°25' E 008°55'0 0.0
2018-May-13 19:51N 44°25' E 008°55'0 0.0
2018-May-13 19:27N 44°25' E 008°55'0 0.0
2018-May-13 18:54N 44°25' E 008°55'0 0.0
2018-May-13 18:27N 44°25' E 008°55'0 0.0
2018-May-13 17:54N 44°25' E 008°55'0 0.0
2018-May-13 17:27N 44°25' E 008°55'0 0.0
2018-May-13 16:57N 44°25' E 008°55'0 0.0
2018-May-13 16:30N 44°25' E 008°55'0 0.0
2018-May-13 16:00N 44°25' E 008°55'0 0.0
2018-May-13 15:30N 44°25' E 008°55'0 0.0
2018-May-13 15:00N 44°25' E 008°55'0 0.0
2018-May-13 14:30N 44°25' E 008°55'0 0.0
2018-May-13 14:00N 44°25' E 008°55'0 0.0
2018-May-13 13:30N 44°25' E 008°55'0 0.0
2018-May-13 13:00N 44°25' E 008°55'0 0.0
2018-May-13 12:30N 44°25' E 008°55'0 0.0
2018-May-13 12:00N 44°25' E 008°55'0 0.0
2018-May-13 11:30N 44°25' E 008°55'0 0.0
2018-May-13 11:00N 44°25' E 008°55'0 0.0
2018-May-13 10:30N 44°25' E 008°55'0 0.0
2018-May-13 10:00N 44°25' E 008°55'0 0.0
2018-May-13 09:30N 44°25' E 008°55'0 0.0
2018-May-13 09:00N 44°25' E 008°55'0 0.0
2018-May-13 08:30N 44°25' E 008°55'0 0.0
2018-May-13 07:59N 44°25' E 008°55'0 0.0
2018-May-13 07:30N 44°25' E 008°55'0 0.0
2018-May-13 07:00N 44°25' E 008°55'0 0.0
2018-May-13 06:30N 44°25' E 008°55'0 0.0
2018-May-13 06:00N 44°25' E 008°55'0 0.0
2018-May-13 05:30N 44°25' E 008°55'0 0.0
2018-May-13 04:59N 44°25' E 008°55'0 0.0
2018-May-13 04:30N 44°25' E 008°55'0 0.0
2018-May-13 04:00N 44°25' E 008°55'0 0.0
2018-May-13 03:30N 44°25' E 008°55'0 0.0
2018-May-13 03:00N 44°25' E 008°55'0 0.0
2018-May-13 02:30N 44°25' E 008°55'0 0.0
2018-May-13 02:00N 44°25' E 008°55'0 0.0
2018-May-13 01:30N 44°25' E 008°55'0 0.0
2018-May-13 01:00N 44°25' E 008°55'0 0.0
2018-May-13 00:30N 44°25' E 008°55'0 0.0
2018-May-13 00:00N 44°25' E 008°55'0 0.0
2018-May-12 23:30N 44°25' E 008°55'0 0.0
2018-May-12 23:00N 44°25' E 008°55'0 0.0
2018-May-12 22:30N 44°25' E 008°55'0 0.0
2018-May-12 22:00N 44°25' E 008°55'0 0.0
2018-May-12 21:30N 44°25' E 008°55'0 0.0
2018-May-12 21:00N 44°25' E 008°55'0 0.0
2018-May-12 20:30N 44°25' E 008°55'0 0.0
2018-May-12 20:00N 44°25' E 008°55'0 0.0
2018-May-12 19:30N 44°25' E 008°55'0 0.0
2018-May-12 19:00N 44°25' E 008°55'0 0.0
2018-May-12 18:30N 44°25' E 008°55'0 0.0
2018-May-12 18:00N 44°25' E 008°55'0 0.0
2018-May-12 17:30N 44°25' E 008°55'0 0.0
2018-May-12 17:00N 44°25' E 008°55'0 0.0
2018-May-12 16:30N 44°25' E 008°55'0 0.0
2018-May-12 16:00N 44°25' E 008°55'0 0.0
2018-May-12 15:30N 44°25' E 008°55'0 0.0
2018-May-12 15:00N 44°25' E 008°55'0 0.0
2018-May-12 14:30N 44°25' E 008°55'0 0.0
2018-May-12 14:00N 44°25' E 008°55'0 0.0
2018-May-12 13:30N 44°25' E 008°55'0 0.0
2018-May-12 13:00N 44°25' E 008°55'0 0.0
2018-May-12 12:30N 44°25' E 008°55'0 0.0
2018-May-12 11:59N 44°25' E 008°55'0 0.0
2018-May-12 11:30N 44°25' E 008°55'0 0.0
2018-May-12 11:00N 44°25' E 008°55'0 0.0
2018-May-12 10:30N 44°25' E 008°55'0 0.0
2018-May-12 10:00N 44°25' E 008°55'0 0.0
2018-May-12 09:30N 44°25' E 008°55'0 0.0
2018-May-12 09:00N 44°25' E 008°55'0 0.0
2018-May-12 08:30N 44°25' E 008°55'0 0.2
2018-May-12 08:00N 44°25' E 008°55'2 3.4
2018-May-12 07:30N 44°23' E 008°57'4 7.4
2018-May-12 07:00N 44°20' E 008°59'3 5.6
2018-May-12 06:30N 44°18' E 008°57'4 7.7
2018-May-12 06:00N 44°16' E 008°52'4 8.0
2018-May-12 05:30N 44°13' E 008°48'4 8.6
2018-May-12 05:00N 44°11' E 008°43'4 8.6
2018-May-12 04:30N 44°09' E 008°38'4 8.5
2018-May-12 04:00N 44°06' E 008°33'4 8.2
2018-May-12 03:30N 44°03' E 008°29'5 8.0
2018-May-12 02:52N 43°60' E 008°24'22 8.3
2018-May-12 00:13N 43°46' E 007°60'26 8.0
2018-May-11 20:55N 43°38' E 007°25'5 7.7
2018-May-11 20:17N 43°37' E 007°18'2 8.0
2018-May-11 19:59N 43°36' E 007°15'4 7.6
2018-May-11 19:30N 43°36' E 007°10'2 1.6
2018-May-11 18:28N 43°35' E 007°08'0 0.0
2018-May-11 17:58N 43°35' E 007°08'0 0.0
2018-May-11 17:13N 43°35' E 007°08'0 0.0
2018-May-11 16:58N 43°35' E 007°08'0 0.0
2018-May-11 16:28N 43°35' E 007°08'  

Dump ship's entire track history